createdAt,value
2022-11-12T00:00:29.976Z,22.83
2022-11-12T00:01:29.964Z,22.87
2022-11-12T00:02:29.953Z,22.80
2022-11-12T00:03:29.943Z,22.86
2022-11-12T00:04:29.931Z,22.86
2022-11-12T00:05:29.926Z,22.84
2022-11-12T00:06:29.910Z,22.87
2022-11-12T00:07:29.897Z,22.84
2022-11-12T00:08:30.202Z,22.82
2022-11-12T00:09:29.881Z,22.80
2022-11-12T00:10:29.981Z,22.84
2022-11-12T00:11:29.875Z,22.83
2022-11-12T00:12:29.846Z,22.82
2022-11-12T00:13:29.832Z,22.83
2022-11-12T00:14:29.820Z,22.89
2022-11-12T00:15:29.809Z,22.83
2022-11-12T00:16:29.797Z,22.83
2022-11-12T00:17:29.801Z,22.82
2022-11-12T00:18:29.898Z,22.86
2022-11-12T00:19:29.764Z,22.80
2022-11-12T00:20:29.753Z,22.83
2022-11-12T00:21:29.745Z,22.83
2022-11-12T00:22:29.729Z,22.84
2022-11-12T00:23:29.725Z,22.84
2022-11-12T00:24:29.709Z,22.84
2022-11-12T00:25:29.700Z,22.82
2022-11-12T00:26:29.800Z,22.83
2022-11-12T00:27:29.675Z,22.82
2022-11-12T00:28:34.823Z,22.84
2022-11-12T00:29:30.699Z,22.82
2022-11-12T00:30:29.643Z,22.86
2022-11-12T00:31:29.631Z,22.84
2022-11-12T00:32:29.621Z,22.78
2022-11-12T00:33:29.607Z,22.82
2022-11-12T00:34:29.597Z,22.83
2022-11-12T00:35:29.593Z,22.87
2022-11-12T00:36:29.579Z,22.82
2022-11-12T00:37:29.563Z,22.80
2022-11-12T00:38:29.553Z,22.87
2022-11-12T00:39:29.541Z,22.80
2022-11-12T00:40:29.530Z,22.86
2022-11-12T00:41:29.540Z,22.86
2022-11-12T00:42:29.618Z,22.87
2022-11-12T00:43:29.499Z,22.84
2022-11-12T00:44:29.488Z,22.83
2022-11-12T00:45:29.475Z,22.84
2022-11-12T00:46:29.464Z,22.83
2022-11-12T00:47:29.470Z,22.78
2022-11-12T00:48:29.602Z,22.87
2022-11-12T00:49:29.431Z,22.86
2022-11-12T00:50:29.420Z,22.86
2022-11-12T00:51:29.409Z,22.84
2022-11-12T00:52:29.398Z,22.86
2022-11-12T00:53:29.393Z,22.82
2022-11-12T00:54:29.376Z,22.84
2022-11-12T00:55:29.365Z,22.80
2022-11-12T00:56:34.468Z,22.82
2022-11-12T00:57:30.343Z,22.80
2022-11-12T00:58:29.445Z,22.82
2022-11-12T00:59:29.327Z,22.84
2022-11-12T01:00:29.310Z,22.82
2022-11-12T01:01:29.345Z,22.80
2022-11-12T01:02:29.286Z,22.77
2022-11-12T01:03:29.307Z,22.84
2022-11-12T01:04:29.265Z,22.78
2022-11-12T01:05:29.283Z,22.83
2022-11-12T01:06:29.244Z,22.86
2022-11-12T01:07:29.234Z,22.86
2022-11-12T01:08:29.592Z,22.83
2022-11-12T01:09:29.208Z,22.86
2022-11-12T01:10:29.199Z,22.83
2022-11-12T01:11:29.193Z,22.86
2022-11-12T01:12:29.175Z,22.80
2022-11-12T01:13:29.164Z,22.86
2022-11-12T01:14:29.263Z,22.84
2022-11-12T01:15:29.147Z,22.86
2022-11-12T01:16:29.131Z,22.78
2022-11-12T01:17:29.136Z,22.83
2022-11-12T01:18:29.395Z,22.86
2022-11-12T01:19:29.097Z,22.77
2022-11-12T01:20:29.087Z,22.80
2022-11-12T01:21:29.076Z,22.82
2022-11-12T01:22:29.067Z,22.83
2022-11-12T01:23:29.060Z,22.86
2022-11-12T01:24:29.043Z,22.83
2022-11-12T01:25:29.032Z,22.83
2022-11-12T01:26:29.019Z,22.78
2022-11-12T01:27:29.010Z,22.75
2022-11-12T01:28:29.239Z,22.84
2022-11-12T01:29:28.993Z,22.80
2022-11-12T01:30:29.088Z,22.82
2022-11-12T01:31:28.964Z,22.87
2022-11-12T01:32:28.954Z,22.82
2022-11-12T01:33:28.942Z,22.80
2022-11-12T01:34:28.931Z,22.83
2022-11-12T01:35:28.942Z,22.83
2022-11-12T01:36:28.909Z,22.84
2022-11-12T01:37:28.899Z,22.83
2022-11-12T01:38:29.251Z,22.80
2022-11-12T01:39:28.877Z,22.83
2022-11-12T01:40:28.866Z,22.78
2022-11-12T01:41:28.884Z,22.83
2022-11-12T01:42:28.842Z,22.80
2022-11-12T01:43:28.838Z,22.71
2022-11-12T01:44:28.822Z,22.82
2022-11-12T01:45:28.809Z,22.82
2022-11-12T01:46:28.908Z,22.86
2022-11-12T01:47:28.806Z,22.82
2022-11-12T01:48:28.997Z,22.83
2022-11-12T01:49:28.767Z,22.78
2022-11-12T01:50:28.753Z,22.83
2022-11-12T01:51:28.746Z,22.82
2022-11-12T01:52:28.730Z,22.80
2022-11-12T01:53:28.737Z,22.74
2022-11-12T01:54:28.708Z,22.82
2022-11-12T01:55:28.697Z,22.77
2022-11-12T01:56:28.686Z,22.82
2022-11-12T01:57:34.404Z,22.89
2022-11-12T01:58:29.672Z,22.78
2022-11-12T01:59:28.653Z,22.74
2022-11-12T02:00:28.643Z,22.82
2022-11-12T02:01:28.683Z,22.84
2022-11-12T02:02:28.731Z,22.77
2022-11-12T02:03:28.608Z,22.86
2022-11-12T02:04:28.602Z,22.78
2022-11-12T02:05:28.588Z,22.82
2022-11-12T02:06:28.575Z,22.89
2022-11-12T02:07:28.564Z,22.77
2022-11-12T02:08:28.667Z,22.77
2022-11-12T02:09:28.545Z,22.80
2022-11-12T02:10:28.536Z,22.82
2022-11-12T02:11:28.520Z,22.75
2022-11-12T02:12:28.511Z,22.83
2022-11-12T02:13:28.497Z,22.82
2022-11-12T02:14:28.486Z,22.87
2022-11-12T02:15:28.474Z,22.80
2022-11-12T02:16:28.492Z,22.78
2022-11-12T02:17:28.454Z,22.82
2022-11-12T02:18:28.744Z,22.83
2022-11-12T02:19:28.429Z,22.82
2022-11-12T02:20:28.418Z,22.82
2022-11-12T02:21:28.414Z,22.75
2022-11-12T02:22:28.417Z,22.72
2022-11-12T02:23:28.387Z,22.82
2022-11-12T02:24:28.374Z,22.82
2022-11-12T02:25:28.374Z,22.75
2022-11-12T02:26:28.353Z,22.75
2022-11-12T02:27:28.341Z,22.77
2022-11-12T02:28:28.594Z,22.74
2022-11-12T02:29:28.317Z,22.82
2022-11-12T02:30:28.328Z,22.80
2022-11-12T02:31:28.296Z,22.74
2022-11-12T02:32:28.289Z,22.80
2022-11-12T02:33:28.274Z,22.78
2022-11-12T02:34:28.382Z,22.82
2022-11-12T02:35:28.251Z,22.77
2022-11-12T02:36:28.247Z,22.82
2022-11-12T02:37:28.229Z,22.80
2022-11-12T02:38:28.531Z,22.83
2022-11-12T02:39:28.207Z,22.80
2022-11-12T02:40:28.220Z,22.80
2022-11-12T02:41:28.184Z,22.72
2022-11-12T02:42:28.173Z,22.82
2022-11-12T02:43:28.162Z,22.83
2022-11-12T02:44:28.151Z,22.75
2022-11-12T02:45:28.144Z,22.75
2022-11-12T02:46:28.135Z,22.75
2022-11-12T02:47:28.116Z,22.71
2022-11-12T02:48:28.454Z,22.82
2022-11-12T02:49:28.097Z,22.77
2022-11-12T02:50:28.196Z,22.77
2022-11-12T02:51:28.076Z,22.74
2022-11-12T02:52:28.091Z,22.77
2022-11-12T02:53:28.050Z,22.82
2022-11-12T02:54:28.041Z,22.82
2022-11-12T02:55:28.029Z,22.74
2022-11-12T02:56:28.016Z,22.71
2022-11-12T02:57:28.006Z,22.82
2022-11-12T02:58:28.371Z,22.77
2022-11-12T02:59:27.983Z,22.75
2022-11-12T03:00:27.973Z,22.77
2022-11-12T03:01:28.016Z,22.72
2022-11-12T03:02:27.951Z,22.75
2022-11-12T03:03:27.942Z,22.77
2022-11-12T03:04:27.939Z,22.77
2022-11-12T03:05:27.918Z,22.74
2022-11-12T03:06:28.021Z,22.82
2022-11-12T03:07:27.895Z,22.75
2022-11-12T03:08:28.266Z,22.82
2022-11-12T03:09:27.873Z,22.78
2022-11-12T03:10:27.868Z,22.75
2022-11-12T03:11:27.851Z,22.77
2022-11-12T03:12:27.844Z,22.74
2022-11-12T03:13:27.832Z,22.82
2022-11-12T03:14:27.826Z,22.72
2022-11-12T03:15:27.809Z,22.83
2022-11-12T03:17:43.470Z,22.80
2022-11-12T03:18:43.453Z,22.82
2022-11-12T03:19:43.441Z,22.74
2022-11-12T03:20:43.430Z,22.74
2022-11-12T03:21:43.532Z,22.77
2022-11-12T03:22:43.410Z,22.82
2022-11-12T03:23:43.427Z,22.80
2022-11-12T03:24:43.387Z,22.74
2022-11-12T03:25:43.374Z,22.75
2022-11-12T03:26:43.364Z,22.74
2022-11-12T03:27:43.353Z,22.82
2022-11-12T03:28:43.341Z,22.75
2022-11-12T03:29:43.350Z,22.78
2022-11-12T03:30:43.322Z,22.78
2022-11-12T03:31:43.310Z,22.75
2022-11-12T03:32:43.296Z,22.72
2022-11-12T03:33:43.285Z,22.72
2022-11-12T03:34:43.275Z,22.67
2022-11-12T03:35:43.272Z,22.77
2022-11-12T03:36:43.253Z,22.71
2022-11-12T03:37:43.355Z,22.67
2022-11-12T03:38:43.231Z,22.74
2022-11-12T03:39:43.219Z,22.75
2022-11-12T03:40:43.209Z,22.75
2022-11-12T03:41:43.220Z,22.80
2022-11-12T03:42:43.187Z,22.74
2022-11-12T03:43:43.176Z,22.72
2022-11-12T03:44:43.163Z,22.78
2022-11-12T03:45:43.156Z,22.78
2022-11-12T03:46:44.519Z,22.71
2022-11-12T03:47:43.162Z,22.84
2022-11-12T03:48:43.126Z,22.78
2022-11-12T03:49:43.108Z,22.67
2022-11-12T03:50:43.097Z,22.74
2022-11-12T03:51:43.105Z,22.75
2022-11-12T03:52:43.074Z,22.69
2022-11-12T03:53:43.181Z,22.71
2022-11-12T03:54:43.052Z,22.74
2022-11-12T03:55:43.044Z,22.80
2022-11-12T03:56:43.030Z,22.82
2022-11-12T03:57:43.022Z,22.72
2022-11-12T03:58:43.007Z,22.69
2022-11-12T03:59:43.025Z,22.82
2022-11-12T04:00:42.984Z,22.74
2022-11-12T04:01:42.974Z,22.72
2022-11-12T04:02:42.962Z,22.71
2022-11-12T04:03:42.952Z,22.67
2022-11-12T04:04:42.943Z,22.78
2022-11-12T04:05:42.950Z,22.67
2022-11-12T04:06:42.963Z,22.69
2022-11-12T04:07:42.908Z,22.75
2022-11-12T04:08:42.895Z,22.72
2022-11-12T04:09:42.998Z,22.68
2022-11-12T04:10:42.873Z,22.72
2022-11-12T04:11:42.870Z,22.69
2022-11-12T04:12:42.851Z,22.65
2022-11-12T04:13:42.842Z,22.80
2022-11-12T04:14:42.829Z,22.80
2022-11-12T04:15:42.819Z,22.74
2022-11-12T04:16:42.809Z,22.71
2022-11-12T04:17:42.813Z,22.77
2022-11-12T04:18:42.785Z,22.64
2022-11-12T04:19:42.772Z,22.71
2022-11-12T04:20:42.763Z,22.78
2022-11-12T04:21:42.752Z,22.74
2022-11-12T04:22:42.739Z,22.80
2022-11-12T04:23:42.738Z,22.80
2022-11-12T04:24:42.718Z,22.77
2022-11-12T04:25:42.816Z,22.65
2022-11-12T04:26:42.695Z,22.72
2022-11-12T04:27:42.689Z,22.75
2022-11-12T04:28:42.675Z,22.71
2022-11-12T04:29:42.671Z,22.69
2022-11-12T04:30:42.650Z,22.67
2022-11-12T04:31:42.641Z,22.69
2022-11-12T04:32:42.629Z,22.69
2022-11-12T04:33:42.618Z,22.67
2022-11-12T04:34:42.636Z,22.77
2022-11-12T04:35:42.628Z,22.78
2022-11-12T04:36:42.584Z,22.71
2022-11-12T04:37:42.572Z,22.67
2022-11-12T04:38:42.561Z,22.65
2022-11-12T04:39:42.551Z,22.72
2022-11-12T04:40:42.541Z,22.68
2022-11-12T04:41:42.659Z,22.67
2022-11-12T04:42:42.517Z,22.69
2022-11-12T04:43:42.506Z,22.69
2022-11-12T04:44:42.498Z,22.65
2022-11-12T04:45:42.486Z,22.68
2022-11-12T04:46:42.471Z,22.65
2022-11-12T04:47:42.485Z,22.69
2022-11-12T04:48:42.451Z,22.68
2022-11-12T04:49:42.440Z,22.67
2022-11-12T04:50:42.428Z,22.69
2022-11-12T04:51:42.419Z,22.68
2022-11-12T04:52:42.414Z,22.67
2022-11-12T04:53:42.412Z,22.68
2022-11-12T04:54:42.383Z,22.65
2022-11-12T04:55:42.373Z,22.68
2022-11-12T04:56:42.360Z,22.64
2022-11-12T04:57:42.460Z,22.65
2022-11-12T04:58:42.338Z,22.67
2022-11-12T04:59:42.334Z,22.69
2022-11-12T05:00:42.317Z,22.64
2022-11-12T05:01:42.334Z,22.67
2022-11-12T05:02:42.296Z,22.75
2022-11-12T05:03:42.285Z,22.67
2022-11-12T05:04:42.271Z,22.68
2022-11-12T05:05:42.267Z,22.68
2022-11-12T05:06:42.340Z,22.69
2022-11-12T05:07:42.238Z,22.68
2022-11-12T05:08:42.228Z,22.64
2022-11-12T05:09:42.217Z,22.60
2022-11-12T05:10:42.206Z,22.65
2022-11-12T05:11:42.211Z,22.64
2022-11-12T05:12:42.182Z,22.68
2022-11-12T05:13:42.280Z,22.65
2022-11-12T05:14:42.160Z,22.65
2022-11-12T05:15:42.149Z,22.68
2022-11-12T05:16:42.138Z,22.68
2022-11-12T05:17:42.158Z,22.59
2022-11-12T05:18:42.120Z,22.57
2022-11-12T05:19:42.104Z,22.62
2022-11-12T05:20:42.093Z,22.59
2022-11-12T05:21:43.665Z,22.65
2022-11-12T05:22:47.659Z,22.59
2022-11-12T05:23:43.066Z,22.67
2022-11-12T05:24:42.869Z,22.59
2022-11-12T05:25:42.037Z,22.57
2022-11-12T05:26:42.026Z,22.57
2022-11-12T05:27:42.015Z,22.60
2022-11-12T05:28:42.004Z,22.57
2022-11-12T05:29:42.107Z,22.57
2022-11-12T05:30:41.982Z,22.64
2022-11-12T05:31:41.970Z,22.56
2022-11-12T05:32:41.959Z,22.59
2022-11-12T05:33:41.948Z,22.62
2022-11-12T05:34:41.937Z,22.64
2022-11-12T05:35:41.931Z,22.56
2022-11-12T05:36:41.917Z,22.54
2022-11-12T05:37:41.906Z,22.59
2022-11-12T05:38:41.891Z,22.60
2022-11-12T05:39:41.888Z,22.62
2022-11-12T05:40:41.871Z,22.59
2022-11-12T05:42:10.856Z,22.57
2022-11-12T05:42:42.858Z,22.59
2022-11-12T05:43:41.838Z,22.59
2022-11-12T05:44:41.843Z,22.59
2022-11-12T05:45:41.926Z,22.52
2022-11-12T05:46:41.804Z,22.60
2022-11-12T05:47:41.822Z,22.54
2022-11-12T05:48:41.782Z,22.59
2022-11-12T05:49:41.769Z,22.59
2022-11-12T05:51:06.165Z,22.59
2022-11-12T05:51:42.747Z,22.57
2022-11-12T05:52:41.736Z,22.60
2022-11-12T05:53:41.747Z,22.64
2022-11-12T05:54:41.713Z,22.56
2022-11-12T05:55:41.703Z,22.50
2022-11-12T05:56:41.690Z,22.59
2022-11-12T05:57:41.680Z,22.68
2022-11-12T05:58:41.670Z,22.59
2022-11-12T05:59:41.679Z,22.62
2022-11-12T06:00:41.647Z,22.57
2022-11-12T06:01:41.750Z,22.57
2022-11-12T06:02:43.055Z,22.57
2022-11-12T06:03:41.612Z,22.60
2022-11-12T06:04:41.604Z,22.57
2022-11-12T06:05:41.612Z,22.53
2022-11-12T06:06:41.629Z,22.57
2022-11-12T06:07:41.569Z,22.59
2022-11-12T06:08:41.556Z,22.60
2022-11-12T06:09:41.551Z,22.59
2022-11-12T06:10:41.535Z,22.59
2022-11-12T06:11:41.531Z,22.59
2022-11-12T06:12:41.512Z,22.60
2022-11-12T06:13:41.501Z,22.59
2022-11-12T06:14:41.490Z,22.56
2022-11-12T06:15:41.478Z,22.62
2022-11-12T06:16:41.468Z,22.54
2022-11-12T06:17:41.612Z,22.53
2022-11-12T06:18:41.446Z,22.56
2022-11-12T06:19:41.434Z,22.52
2022-11-12T06:20:41.425Z,22.64
2022-11-12T06:21:41.415Z,22.57
2022-11-12T06:22:41.401Z,22.57
2022-11-12T06:23:41.411Z,22.62
2022-11-12T06:24:41.379Z,22.59
2022-11-12T06:25:41.368Z,22.57
2022-11-12T06:26:41.358Z,22.56
2022-11-12T06:27:41.353Z,22.57
2022-11-12T06:28:41.382Z,22.62
2022-11-12T06:29:41.332Z,22.56
2022-11-12T06:30:41.310Z,22.52
2022-11-12T06:31:41.300Z,22.52
2022-11-12T06:32:41.288Z,22.57
2022-11-12T06:33:41.388Z,22.53
2022-11-12T06:34:41.266Z,22.54
2022-11-12T06:35:43.159Z,22.60
2022-11-12T06:36:41.245Z,22.54
2022-11-12T06:37:41.235Z,22.57
2022-11-12T06:38:41.222Z,22.56
2022-11-12T06:39:41.211Z,22.54
2022-11-12T06:40:41.202Z,22.50
2022-11-12T06:41:41.196Z,22.59
2022-11-12T06:42:41.178Z,22.59
2022-11-12T06:43:41.167Z,22.59
2022-11-12T06:44:41.155Z,22.56
2022-11-12T06:45:41.151Z,22.60
2022-11-12T06:46:41.135Z,22.56
2022-11-12T06:47:41.127Z,22.50
2022-11-12T06:48:41.115Z,22.56
2022-11-12T06:49:41.219Z,22.57
2022-11-12T06:50:41.093Z,22.57
2022-11-12T06:51:41.078Z,22.60
2022-11-12T06:52:41.069Z,22.56
2022-11-12T06:53:41.086Z,22.57
2022-11-12T06:54:41.048Z,22.56
2022-11-12T06:55:41.033Z,22.64
2022-11-12T06:56:41.022Z,22.54
2022-11-12T06:57:41.010Z,22.59
2022-11-12T06:58:40.999Z,22.53
2022-11-12T06:59:41.011Z,22.57
2022-11-12T07:00:40.978Z,22.57
2022-11-12T07:01:41.014Z,22.62
2022-11-12T07:02:40.953Z,22.57
2022-11-12T07:03:40.942Z,22.62
2022-11-12T07:04:40.932Z,22.52
2022-11-12T07:05:41.040Z,22.53
2022-11-12T07:06:41.011Z,22.59
2022-11-12T07:07:40.901Z,22.52
2022-11-12T07:08:40.902Z,22.60
2022-11-12T07:09:40.876Z,22.60
2022-11-12T07:10:40.867Z,22.60
2022-11-12T07:11:40.888Z,22.57
2022-11-12T07:12:40.845Z,22.54
2022-11-12T07:13:40.831Z,22.59
2022-11-12T07:14:40.824Z,22.56
2022-11-12T07:15:40.813Z,22.64
2022-11-12T07:16:40.798Z,22.60
2022-11-12T07:17:40.795Z,22.62
2022-11-12T07:18:40.776Z,22.56
2022-11-12T07:19:40.768Z,22.59
2022-11-12T07:20:40.753Z,22.57
2022-11-12T07:21:40.862Z,22.56
2022-11-12T07:22:40.730Z,22.60
2022-11-12T07:23:40.726Z,22.52
2022-11-12T07:24:40.710Z,22.56
2022-11-12T07:25:40.697Z,22.59
2022-11-12T07:26:46.068Z,22.60
2022-11-12T07:27:41.674Z,22.60
2022-11-12T07:28:40.665Z,22.60
2022-11-12T07:29:47.963Z,22.64
2022-11-12T07:30:41.642Z,22.57
2022-11-12T07:31:40.630Z,22.59
2022-11-12T07:32:45.071Z,22.52
2022-11-12T07:33:41.608Z,22.57
2022-11-12T07:34:40.598Z,22.52
2022-11-12T07:35:40.606Z,22.54
2022-11-12T07:36:40.576Z,22.60
2022-11-12T07:37:40.674Z,22.52
2022-11-12T07:38:40.554Z,22.54
2022-11-12T07:39:40.549Z,22.57
2022-11-12T07:40:40.531Z,22.59
2022-11-12T07:41:40.526Z,22.59
2022-11-12T07:42:40.509Z,22.62
2022-11-12T07:43:40.499Z,22.53
2022-11-12T07:44:40.485Z,22.60
2022-11-12T07:45:40.475Z,22.57
2022-11-12T07:46:40.464Z,22.59
2022-11-12T07:47:40.459Z,22.53
2022-11-12T07:48:40.445Z,22.53
2022-11-12T07:49:40.434Z,22.59
2022-11-12T07:50:40.421Z,22.54
2022-11-12T07:51:40.407Z,22.54
2022-11-12T07:52:40.397Z,22.64
2022-11-12T07:53:40.504Z,22.59
2022-11-12T07:54:40.374Z,22.54
2022-11-12T07:55:40.363Z,22.59
2022-11-12T07:56:40.352Z,22.62
2022-11-12T07:57:40.343Z,22.69
2022-11-12T07:58:40.335Z,22.60
2022-11-12T07:59:45.677Z,22.67
2022-11-12T08:00:41.306Z,22.57
2022-11-12T08:01:40.414Z,22.59
2022-11-12T08:02:40.286Z,22.60
2022-11-12T08:03:40.275Z,22.69
2022-11-12T08:04:40.263Z,22.68
2022-11-12T08:05:40.283Z,22.69
2022-11-12T08:06:40.412Z,22.69
2022-11-12T08:07:40.420Z,22.68
2022-11-12T08:08:40.218Z,22.65
2022-11-12T08:09:40.321Z,22.69
2022-11-12T08:10:40.196Z,22.67
2022-11-12T08:11:40.205Z,22.67
2022-11-12T08:12:40.180Z,22.78
2022-11-12T08:13:40.163Z,22.78
2022-11-12T08:14:40.153Z,22.75
2022-11-12T08:15:40.141Z,22.83
2022-11-12T08:16:40.131Z,22.74
2022-11-12T08:17:40.127Z,22.78
2022-11-12T08:18:40.109Z,22.78
2022-11-12T08:19:40.097Z,22.80
2022-11-12T08:20:40.085Z,22.83
2022-11-12T08:21:40.075Z,22.82
2022-11-12T08:22:42.811Z,22.86
2022-11-12T08:23:41.057Z,22.80
2022-11-12T08:24:40.041Z,22.87
2022-11-12T08:25:40.139Z,22.82
2022-11-12T08:26:40.025Z,22.92
2022-11-12T08:27:40.008Z,22.83
2022-11-12T08:28:39.997Z,22.83
2022-11-12T08:29:40.006Z,22.96
2022-11-12T08:30:39.975Z,22.90
2022-11-12T08:31:39.963Z,22.92
2022-11-12T08:32:39.952Z,22.94
2022-11-12T08:33:39.943Z,22.89
2022-11-12T08:34:39.930Z,22.96
2022-11-12T08:35:39.945Z,22.96
2022-11-12T08:36:39.909Z,22.86
2022-11-12T08:37:39.896Z,22.89
2022-11-12T08:38:39.886Z,22.92
2022-11-12T08:39:39.879Z,22.94
2022-11-12T08:40:39.864Z,22.99
2022-11-12T08:41:39.980Z,22.93
2022-11-12T08:42:39.842Z,22.97
2022-11-12T08:43:39.833Z,22.92
2022-11-12T08:44:39.820Z,22.94
2022-11-12T08:45:39.808Z,23.07
2022-11-12T08:46:39.797Z,23.02
2022-11-12T08:47:39.806Z,23.02
2022-11-12T08:48:39.775Z,22.99
2022-11-12T08:49:42.581Z,23.15
2022-11-12T08:50:40.752Z,23.05
2022-11-12T08:51:39.741Z,23.12
2022-11-12T08:52:39.730Z,23.19
2022-11-12T08:53:39.744Z,23.15
2022-11-12T08:54:39.709Z,23.19
2022-11-12T08:55:39.697Z,23.19
2022-11-12T08:56:39.685Z,23.32
2022-11-12T08:57:39.791Z,23.43
2022-11-12T08:58:39.664Z,23.43
2022-11-12T08:59:39.659Z,23.40
2022-11-12T09:00:39.643Z,23.40
2022-11-12T09:01:39.683Z,23.39
2022-11-12T09:02:39.621Z,23.43
2022-11-12T09:03:39.608Z,23.45
2022-11-12T09:04:39.597Z,23.47
2022-11-12T09:05:39.607Z,23.52
2022-11-12T09:06:39.617Z,23.57
2022-11-12T09:07:55.091Z,23.52
2022-11-12T09:08:40.550Z,23.57
2022-11-12T09:09:39.541Z,23.55
2022-11-12T09:10:39.531Z,23.60
2022-11-12T09:11:39.525Z,23.55
2022-11-12T09:12:39.508Z,23.58
2022-11-12T09:13:39.652Z,23.62
2022-11-12T09:14:39.485Z,23.58
2022-11-12T09:15:39.477Z,23.60
2022-11-12T09:16:39.465Z,23.67
2022-11-12T09:17:39.473Z,23.53
2022-11-12T09:18:39.442Z,23.60
2022-11-12T09:19:42.938Z,23.72
2022-11-12T09:20:39.419Z,23.62
2022-11-12T09:21:39.408Z,23.53
2022-11-12T09:22:39.397Z,23.64
2022-11-12T09:23:39.405Z,23.57
2022-11-12T09:24:39.375Z,23.61
2022-11-12T09:25:39.367Z,23.60
2022-11-12T09:26:39.353Z,23.70
2022-11-12T09:27:42.071Z,23.58
2022-11-12T09:28:40.336Z,23.67
2022-11-12T09:29:39.430Z,23.70
2022-11-12T09:30:39.309Z,23.65
2022-11-12T09:31:39.299Z,23.62
2022-11-12T09:32:39.286Z,23.68
2022-11-12T09:33:39.276Z,23.75
2022-11-12T09:34:39.281Z,23.70
2022-11-12T09:35:39.254Z,23.67
2022-11-12T09:36:40.042Z,23.71
2022-11-12T09:37:39.231Z,23.67
2022-11-12T09:38:39.219Z,23.71
2022-11-12T09:39:39.209Z,23.68
2022-11-12T09:40:39.224Z,23.68
2022-11-12T09:41:39.186Z,23.77
2022-11-12T09:42:39.175Z,23.70
2022-11-12T09:43:39.164Z,23.64
2022-11-12T09:44:39.153Z,23.70
2022-11-12T09:45:39.251Z,23.75
2022-11-12T09:46:39.149Z,23.77
2022-11-12T09:47:39.120Z,23.71
2022-11-12T09:48:39.108Z,23.71
2022-11-12T09:49:39.098Z,23.80
2022-11-12T09:50:39.087Z,23.77
2022-11-12T09:51:39.078Z,23.87
2022-11-12T09:52:39.072Z,23.76
2022-11-12T09:53:43.940Z,23.89
2022-11-12T09:54:40.042Z,23.82
2022-11-12T09:55:39.032Z,23.92
2022-11-12T09:56:39.019Z,23.85
2022-11-12T09:57:39.015Z,23.89
2022-11-12T09:58:39.004Z,23.89
2022-11-12T09:59:38.987Z,23.86
2022-11-12T10:00:43.835Z,23.90
2022-11-12T10:01:40.170Z,23.90
2022-11-12T10:02:38.954Z,23.87
2022-11-12T10:03:38.945Z,23.94
2022-11-12T10:04:38.937Z,23.94
2022-11-12T10:05:38.920Z,23.90
2022-11-12T10:06:38.941Z,23.87
2022-11-12T10:07:38.898Z,23.85
2022-11-12T10:08:38.887Z,23.87
2022-11-12T10:09:38.877Z,23.89
2022-11-12T10:10:38.912Z,23.86
2022-11-12T10:11:38.854Z,23.92
2022-11-12T10:12:38.844Z,23.86
2022-11-12T10:13:38.833Z,23.86
2022-11-12T10:14:38.824Z,23.86
2022-11-12T10:15:38.809Z,23.87
2022-11-12T10:16:38.808Z,23.87
2022-11-12T10:17:38.899Z,23.94
2022-11-12T10:18:38.777Z,23.92
2022-11-12T10:19:38.769Z,23.92
2022-11-12T10:20:38.988Z,23.92
2022-11-12T10:21:38.744Z,23.87
2022-11-12T10:22:38.748Z,23.97
2022-11-12T10:23:38.722Z,23.89
2022-11-12T10:24:38.710Z,23.92
2022-11-12T10:25:38.698Z,23.90
2022-11-12T10:26:38.689Z,24.01
2022-11-12T10:27:38.679Z,24.00
2022-11-12T10:28:39.405Z,24.00
2022-11-12T10:29:38.658Z,23.94
2022-11-12T10:30:38.643Z,24.02
2022-11-12T10:31:38.633Z,24.05
2022-11-12T10:32:38.621Z,24.01
2022-11-12T10:33:38.725Z,24.07
2022-11-12T10:34:38.604Z,24.13
2022-11-12T10:35:38.588Z,24.12
2022-11-12T10:36:38.577Z,24.14
2022-11-12T10:37:38.566Z,24.20
2022-11-12T10:38:38.555Z,24.20
2022-11-12T10:39:38.547Z,24.27
2022-11-12T10:40:38.554Z,24.29
2022-11-12T10:41:38.523Z,24.24
2022-11-12T10:42:38.511Z,24.27
2022-11-12T10:43:38.500Z,24.29
2022-11-12T10:44:38.487Z,24.32
2022-11-12T10:45:38.477Z,24.32
2022-11-12T10:46:38.485Z,24.41
2022-11-12T10:47:38.454Z,24.45
2022-11-12T10:48:38.445Z,24.35
2022-11-12T10:49:38.540Z,24.47
2022-11-12T10:50:38.423Z,24.49
2022-11-12T10:51:38.413Z,24.47
2022-11-12T10:52:38.404Z,24.49
2022-11-12T10:53:38.388Z,24.56
2022-11-12T10:54:38.379Z,24.56
2022-11-12T10:55:38.369Z,24.56
2022-11-12T10:56:38.360Z,24.60
2022-11-12T10:57:38.345Z,24.59
2022-11-12T10:58:38.338Z,24.63
2022-11-12T10:59:38.322Z,24.67
2022-11-12T11:00:38.314Z,24.77
2022-11-12T11:01:43.034Z,24.77
2022-11-12T11:02:39.287Z,24.80
2022-11-12T11:03:38.278Z,24.90
2022-11-12T11:04:38.274Z,24.92
2022-11-12T11:05:38.371Z,24.88
2022-11-12T11:06:38.266Z,24.97
2022-11-12T11:07:38.232Z,24.94
2022-11-12T11:08:38.579Z,24.92
2022-11-12T11:09:38.210Z,25.01
2022-11-12T11:10:38.233Z,25.05
2022-11-12T11:11:38.188Z,25.15
2022-11-12T11:12:38.177Z,25.13
2022-11-12T11:13:38.166Z,25.16
2022-11-12T11:14:38.155Z,25.24
2022-11-12T11:15:38.147Z,25.16
2022-11-12T11:16:38.141Z,25.20
2022-11-12T11:17:38.121Z,25.19
2022-11-12T11:18:38.111Z,25.37
2022-11-12T11:19:38.100Z,25.32
2022-11-12T11:20:38.095Z,25.34
2022-11-12T11:21:42.028Z,25.34
2022-11-12T11:22:39.088Z,25.37
2022-11-12T11:23:38.057Z,25.38
2022-11-12T11:24:38.045Z,25.34
2022-11-12T11:25:38.035Z,25.43
2022-11-12T11:26:38.022Z,25.50
2022-11-12T11:27:38.011Z,25.49
2022-11-12T11:28:38.019Z,25.57
2022-11-12T11:29:37.990Z,25.52
2022-11-12T11:30:37.979Z,25.56
2022-11-12T11:31:37.968Z,25.62
2022-11-12T11:32:38.007Z,25.64
2022-11-12T11:33:37.944Z,25.62
2022-11-12T11:34:37.941Z,25.59
2022-11-12T11:35:37.933Z,25.72
2022-11-12T11:36:37.916Z,25.71
2022-11-12T11:37:38.014Z,25.72
2022-11-12T11:38:37.891Z,25.75
2022-11-12T11:39:37.882Z,25.72
2022-11-12T11:40:37.875Z,25.84
2022-11-12T11:41:37.857Z,25.83
2022-11-12T11:42:37.847Z,25.91
2022-11-12T11:43:37.859Z,25.90
2022-11-12T11:44:37.824Z,25.93
2022-11-12T11:45:37.812Z,25.91
2022-11-12T11:46:37.808Z,25.89
2022-11-12T11:47:59.382Z,25.93
2022-11-12T11:48:38.777Z,25.90
2022-11-12T11:49:37.769Z,25.98
2022-11-12T11:50:37.764Z,25.94
2022-11-12T11:51:37.750Z,26.06
2022-11-12T11:52:37.756Z,26.08
2022-11-12T11:53:37.835Z,26.08
2022-11-12T11:54:37.714Z,26.08
2022-11-12T11:55:37.704Z,26.06
2022-11-12T11:56:37.701Z,26.11
2022-11-12T11:57:37.684Z,26.12
2022-11-12T11:58:37.684Z,26.17
2022-11-12T11:59:37.658Z,26.20
2022-11-12T12:00:37.652Z,26.20
2022-11-12T12:01:37.637Z,26.18
2022-11-12T12:02:37.626Z,26.21
2022-11-12T12:03:37.652Z,26.22
2022-11-12T12:04:37.610Z,26.20
2022-11-12T12:05:37.592Z,26.17
2022-11-12T12:06:37.629Z,26.18
2022-11-12T12:07:37.571Z,26.18
2022-11-12T12:08:37.559Z,26.24
2022-11-12T12:09:37.659Z,26.22
2022-11-12T12:10:53.771Z,26.29
2022-11-12T12:11:38.532Z,26.29
2022-11-12T12:12:37.516Z,26.29
2022-11-12T12:13:37.505Z,26.31
2022-11-12T12:14:37.493Z,26.32
2022-11-12T12:15:37.483Z,26.17
2022-11-12T12:16:37.504Z,26.31
2022-11-12T12:17:37.460Z,26.31
2022-11-12T12:18:37.493Z,26.31
2022-11-12T12:19:37.438Z,26.36
2022-11-12T12:20:37.426Z,26.22
2022-11-12T12:21:37.416Z,26.29
2022-11-12T12:22:37.426Z,26.37
2022-11-12T12:23:37.394Z,26.31
2022-11-12T12:24:37.383Z,26.31
2022-11-12T12:25:37.480Z,26.35
2022-11-12T12:26:37.363Z,26.35
2022-11-12T12:27:37.349Z,26.36
2022-11-12T12:28:37.345Z,26.36
2022-11-12T12:29:37.329Z,26.42
2022-11-12T12:30:37.316Z,26.35
2022-11-12T12:31:37.305Z,26.36
2022-11-12T12:32:37.295Z,26.37
2022-11-12T12:33:37.288Z,26.32
2022-11-12T12:34:37.298Z,26.39
2022-11-12T12:35:37.262Z,26.37
2022-11-12T12:36:37.254Z,26.36
2022-11-12T12:37:37.241Z,26.42
2022-11-12T12:38:37.230Z,26.35
2022-11-12T12:39:37.218Z,26.32
2022-11-12T12:40:37.215Z,26.35
2022-11-12T12:41:37.310Z,26.50
2022-11-12T12:42:37.185Z,26.44
2022-11-12T12:43:37.173Z,26.40
2022-11-12T12:44:37.164Z,26.42
2022-11-12T12:45:37.152Z,26.42
2022-11-12T12:46:37.173Z,26.40
2022-11-12T12:47:37.131Z,26.44
2022-11-12T12:48:37.119Z,26.46
2022-11-12T12:49:37.110Z,26.46
2022-11-12T12:50:37.097Z,26.36
2022-11-12T12:51:37.089Z,26.46
2022-11-12T12:52:37.095Z,26.47
2022-11-12T12:53:37.064Z,26.46